Terminal Aerodrome Forecast
Issued by NWS Memphis, TN

Current Version | Previous Version | Text Only | Print | Product List | Glossary On
Versions: 1 2 3 4 5 6 7 8 9 10 11 12 13 14 15 16 17 18 19 20 21 22
000
FTUS44 KMEG 031450 AAA
TAFMEM
TAF AMD
KMEM 031450Z 0315/0412 08008KT P6SM VCSH BKN060 OVC100
     FM031800 08008KT P6SM -RA SCT015 OVC035
     FM032100 08007KT 5SM -RA BR SCT009 OVC015
     FM040100 08008KT 4SM RA BR BKN009 OVC015=

USA.gov is the U.S. government's official web portal to all federal, state and local government web resources and services.